Time;durP1;ratioP1;P1;durP2;ratioP2;P2;SDS_P1;SDS_P2;PMS_P1;PMS_P2;Temp;Humidity;BMP_temperature;BMP_pressure;BME280_temperature;BME280_humidity;BME280_pressure;Samples;Min_cycle;Max_cycle;Signal;HPM_P1;HPM_P2
2023/08/13 00:01:13;;;;;;;6.95;0.47;;;;;;;19.51;83.57;101019.94;7362012;19;20981;-63
2023/08/13 00:03:40;;;;;;;5.50;0.50;;;;;;;19.49;83.09;101022.81;7360360;19;20060;-63
2023/08/13 00:06:08;;;;;;;7.55;0.60;;;;;;;19.51;83.37;101019.94;7358651;19;20022;-63
2023/08/13 00:08:35;;;;;;;6.47;0.98;;;;;;;19.48;83.88;101018.50;7359494;19;20093;-62
2023/08/13 00:11:08;;;;;;;6.75;0.90;;;;;;;19.45;83.08;101018.94;7356120;19;20010;-63
2023/08/13 00:13:35;;;;;;;6.70;0.57;;;;;;;19.43;83.25;101020.13;7360547;19;20078;-63
2023/08/13 00:16:02;;;;;;;10.48;0.95;;;;;;;19.45;83.20;101020.78;7356495;19;20648;-63
2023/08/13 00:18:29;;;;;;;6.90;0.50;;;;;;;19.47;83.33;101022.19;7358250;19;20053;-62
2023/08/13 00:20:56;;;;;;;8.70;0.60;;;;;;;19.49;83.38;101022.00;7359445;19;20011;-63
2023/08/13 00:23:23;;;;;;;7.35;0.50;;;;;;;19.50;83.41;101012.97;7361587;19;20014;-64
2023/08/13 00:25:50;;;;;;;4.22;0.45;;;;;;;19.53;83.19;101017.88;7356379;19;20026;-64
2023/08/13 00:28:18;;;;;;;6.13;0.50;;;;;;;19.54;83.45;101019.53;7359638;19;20077;-64
2023/08/13 00:30:45;;;;;;;6.22;0.50;;;;;;;19.48;83.06;101015.84;7358975;19;20028;-62
2023/08/13 00:33:12;;;;;;;7.35;0.45;;;;;;;19.44;83.12;101022.63;7359736;19;20011;-63
2023/08/13 00:35:39;;;;;;;8.70;0.60;;;;;;;19.41;83.10;101022.97;7359354;19;20014;-63
2023/08/13 00:38:07;;;;;;;5.53;0.52;;;;;;;19.42;83.14;101018.47;7358242;19;20090;-63
2023/08/13 00:40:34;;;;;;;9.23;0.60;;;;;;;19.44;83.66;101011.94;7358837;19;20019;-65
2023/08/13 00:43:02;;;;;;;6.85;0.43;;;;;;;19.47;83.63;101018.72;7358953;19;20779;-64
2023/08/13 00:45:33;;;;;;;7.13;0.40;;;;;;;19.45;83.77;101013.59;7356069;19;20010;-62
2023/08/13 00:48:02;;;;;;;4.97;0.45;;;;;;;19.45;83.13;101013.59;7360489;19;20114;-63
2023/08/13 00:50:29;;;;;;;4.00;0.50;;;;;;;19.43;82.82;101009.44;7359963;19;20106;-63
2023/08/13 00:52:56;;;;;;;5.40;0.60;;;;;;;19.41;83.81;101011.47;7359732;19;20050;-69
2023/08/13 00:55:25;;;;;;;10.43;0.60;;;;;;;19.37;83.88;101011.09;7361369;19;20156;-65
2023/08/13 00:58:09;;;;;;;4.50;0.52;;;;;;;19.40;83.73;100999.97;7360083;19;20452;-63
2023/08/13 01:00:36;;;;;;;8.10;0.70;;;;;;;19.42;83.52;101000.59;7357800;19;20042;-63
2023/08/13 01:03:03;;;;;;;7.57;0.60;;;;;;;19.41;83.24;101009.63;7357476;19;20105;-63
2023/08/13 01:06:25;;;;;;;5.80;0.45;;;;;;;19.44;83.59;101008.44;7358276;19;20437;-63
2023/08/13 01:09:03;;;;;;;5.88;0.40;;;;;;;19.42;83.51;100995.28;7352360;19;20121;-64
2023/08/13 01:11:51;;;;;;;8.82;0.60;;;;;;;19.44;83.67;100998.59;7352101;19;20022;-64
2023/08/13 01:14:22;;;;;;;6.60;0.40;;;;;;;19.44;84.07;101001.28;7355721;19;20015;-62
2023/08/13 01:16:52;;;;;;;7.93;1.13;;;;;;;19.42;83.55;101005.94;7357121;19;20046;-63
2023/08/13 01:19:19;;;;;;;8.57;0.68;;;;;;;19.39;83.45;101002.88;7355629;19;20048;-63
2023/08/13 01:21:46;;;;;;;7.35;0.50;;;;;;;19.41;84.33;101001.63;7360225;19;20059;-63
2023/08/13 01:24:13;;;;;;;5.32;0.40;;;;;;;19.41;84.13;101001.63;7359066;19;20018;-63
2023/08/13 01:27:13;;;;;;;6.97;0.50;;;;;;;19.39;84.06;101002.88;7355615;19;20054;-63
2023/08/13 01:29:57;;;;;;;5.45;0.70;;;;;;;19.40;84.23;101005.31;7360375;19;20023;-62
2023/08/13 01:32:32;;;;;;;8.55;0.57;;;;;;;19.41;84.48;100998.13;7365233;19;20571;-62
2023/08/13 01:34:59;;;;;;;3.28;0.50;;;;;;;19.44;84.51;100997.75;7364207;19;20014;-64
2023/08/13 01:37:27;;;;;;;4.78;0.50;;;;;;;19.41;83.88;100998.13;7361427;19;20376;-63
2023/08/13 01:39:55;;;;;;;9.32;0.70;;;;;;;19.44;84.01;101000.41;7364854;19;20042;-62
2023/08/13 01:42:22;;;;;;;3.83;0.55;;;;;;;19.45;83.83;101007.44;7359988;19;20022;-63
2023/08/13 01:44:49;;;;;;;4.25;0.40;;;;;;;19.46;84.07;100999.19;7365334;19;20012;-63
2023/08/13 01:47:16;;;;;;;7.18;0.90;;;;;;;19.47;83.93;100995.50;7364470;19;20014;-63
2023/08/13 01:49:43;;;;;;;4.90;0.40;;;;;;;19.46;83.70;100993.84;7366116;19;20610;-64
2023/08/13 01:52:10;;;;;;;9.88;0.60;;;;;;;19.47;83.90;100987.50;7365309;19;20888;-63
2023/08/13 01:54:38;;;;;;;4.22;0.50;;;;;;;19.48;83.53;100991.00;7366093;19;20026;-63
2023/08/13 01:57:05;;;;;;;12.18;0.50;;;;;;;19.47;83.66;100979.50;7363385;19;20006;-64
2023/08/13 01:59:32;;;;;;;7.28;0.70;;;;;;;19.48;84.24;100980.31;7363645;19;20090;-63
2023/08/13 02:01:59;;;;;;;10.38;0.70;;;;;;;19.45;83.40;100975.41;7366159;19;20022;-63
2023/08/13 02:04:25;;;;;;;4.97;0.50;;;;;;;19.35;83.22;100980.31;7364580;19;20039;-63
2023/08/13 02:06:52;;;;;;;7.53;0.55;;;;;;;19.36;83.98;100977.41;7363206;19;20090;-62
2023/08/13 02:09:19;;;;;;;5.55;0.38;;;;;;;19.35;84.47;100981.09;7363854;19;20073;-63
2023/08/13 02:11:46;;;;;;;7.32;0.55;;;;;;;19.36;84.64;100977.41;7361031;19;20024;-63
2023/08/13 02:14:14;;;;;;;7.10;0.52;;;;;;;19.33;84.07;100974.34;7364093;19;20027;-63
2023/08/13 02:16:41;;;;;;;5.90;0.50;;;;;;;19.29;84.46;100984.63;7364200;19;20161;-62
2023/08/13 02:19:08;;;;;;;7.32;0.47;;;;;;;19.30;84.67;100974.78;7360481;19;20024;-63
2023/08/13 02:21:36;;;;;;;3.15;0.43;;;;;;;19.31;84.81;100977.22;7364809;19;20054;-63
2023/08/13 02:24:03;;;;;;;5.35;0.43;;;;;;;19.29;84.69;100965.94;7365345;19;20014;-63
2023/08/13 02:26:30;;;;;;;8.82;0.60;;;;;;;19.28;84.90;100969.63;7361331;19;20019;-62
2023/08/13 02:28:58;;;;;;;8.18;0.50;;;;;;;19.27;84.94;100962.63;7363658;19;20047;-63
2023/08/13 02:31:24;;;;;;;3.83;0.30;;;;;;;19.25;85.04;100969.22;7364450;19;20098;-63
2023/08/13 02:33:51;;;;;;;6.72;0.73;;;;;;;19.24;85.52;100963.06;7364945;19;20503;-63
2023/08/13 02:36:18;;;;;;;10.52;0.60;;;;;;;19.22;85.35;100973.94;7360732;19;20022;-63
2023/08/13 02:38:45;;;;;;;7.20;0.70;;;;;;;19.20;85.51;100967.97;7364615;19;20053;-63
2023/08/13 02:41:12;;;;;;;7.05;0.85;;;;;;;19.16;85.24;100965.91;7360130;19;20549;-65
2023/08/13 02:43:54;;;;;;;6.97;0.55;;;;;;;19.15;85.24;100965.09;7363228;19;20114;-63
2023/08/13 02:46:23;;;;;;;11.73;1.95;;;;;;;19.14;85.59;100966.16;7360401;19;20844;-63
2023/08/13 02:48:55;;;;;;;5.00;0.50;;;;;;;19.17;85.93;100964.91;7365123;19;20511;-62
2023/08/13 02:51:24;;;;;;;7.40;0.57;;;;;;;19.19;85.61;100960.19;7359378;19;20130;-63
2023/08/13 02:53:51;;;;;;;8.95;2.70;;;;;;;19.16;85.59;100953.41;7363538;19;20018;-63
2023/08/13 02:56:18;;;;;;;6.53;0.45;;;;;;;19.13;85.35;100961.84;7363202;19;20064;-62
2023/08/13 02:58:45;;;;;;;7.13;0.63;;;;;;;19.08;85.41;100958.13;7361399;19;20039;-63
2023/08/13 03:01:13;;;;;;;12.32;0.70;;;;;;;19.06;85.61;100957.50;7363598;19;20026;-63
2023/08/13 03:03:40;;;;;;;11.45;0.50;;;;;;;19.07;86.32;100959.97;7363304;19;20114;-63
2023/08/13 03:06:22;;;;;;;6.18;0.50;;;;;;;19.09;86.40;100959.78;7360955;19;20026;-63
2023/08/13 03:08:49;;;;;;;8.02;0.50;;;;;;;19.09;86.10;100959.78;7362205;19;20082;-62
2023/08/13 03:11:16;;;;;;;7.07;0.82;;;;;;;19.10;85.87;100958.72;7360987;19;20037;-62
2023/08/13 03:13:44;;;;;;;9.38;0.50;;;;;;;19.09;86.19;100963.28;7359516;19;20595;-62
2023/08/13 03:16:11;;;;;;;8.23;0.90;;;;;;;19.07;86.38;100959.97;7360319;19;20014;-63
2023/08/13 03:18:38;;;;;;;8.10;0.70;;;;;;;19.08;87.29;100960.81;7362204;19;20018;-63
2023/08/13 03:21:05;;;;;;;10.85;1.00;;;;;;;19.08;86.59;100958.97;7358730;19;20085;-62
2023/08/13 03:23:32;;;;;;;7.47;0.70;;;;;;;19.08;86.32;100966.97;7362916;19;20065;-63
2023/08/13 03:26:00;;;;;;;8.65;0.70;;;;;;;19.05;86.37;100959.34;7361433;19;20106;-63
2023/08/13 03:28:27;;;;;;;6.00;0.68;;;;;;;19.00;86.27;100956.47;7361195;19;20015;-63
2023/08/13 03:30:59;;;;;;;9.63;1.85;;;;;;;18.99;86.86;100962.03;7362554;19;20207;-63
2023/08/13 03:33:26;;;;;;;6.03;0.60;;;;;;;18.99;87.01;100956.69;7361843;19;20467;-62
2023/08/13 03:35:53;;;;;;;6.68;0.70;;;;;;;18.97;86.91;100956.06;7362608;19;20090;-63
2023/08/13 03:38:20;;;;;;;7.50;0.60;;;;;;;18.96;86.69;100962.44;7363662;19;20026;-63
2023/08/13 03:40:48;;;;;;;6.13;0.50;;;;;;;18.99;86.93;100951.38;7361530;19;20498;-64
2023/08/13 03:43:14;;;;;;;8.57;0.65;;;;;;;18.98;86.44;100949.72;7359949;19;20357;-64
2023/08/13 03:45:42;;;;;;;10.88;0.80;;;;;;;18.95;86.17;100948.28;7361088;19;20791;-63
2023/08/13 03:48:09;;;;;;;8.20;1.02;;;;;;;18.97;87.01;100958.75;7361936;19;20018;-63
2023/08/13 03:50:43;;;;;;;8.45;0.70;;;;;;;18.98;87.02;100955.06;7361208;19;20090;-63
2023/08/13 03:53:11;;;;;;;8.45;0.52;;;;;;;18.97;86.29;100954.22;7360733;19;20014;-63
2023/08/13 03:55:38;;;;;;;10.23;0.60;;;;;;;18.98;86.44;100958.56;7361296;19;20104;-63
2023/08/13 03:58:06;;;;;;;7.95;0.55;;;;;;;19.01;86.37;100962.63;7356693;19;20089;-63
2023/08/13 04:00:33;;;;;;;7.63;0.40;;;;;;;19.03;85.83;100958.75;7359493;19;20049;-64
2023/08/13 04:03:00;;;;;;;7.18;0.60;;;;;;;19.02;86.39;100959.78;7360217;19;20022;-64
2023/08/13 04:05:45;;;;;;;7.38;0.60;;;;;;;19.00;86.83;100959.16;7360380;19;20025;-63
2023/08/13 04:08:12;;;;;;;7.75;0.55;;;;;;;18.99;86.06;100959.38;7359627;19;20994;-63
2023/08/13 04:10:40;;;;;;;5.57;0.50;;;;;;;19.00;86.11;100961.00;7360869;19;20002;-63
2023/08/13 04:13:07;;;;;;;10.18;0.60;;;;;;;18.99;85.94;100959.38;7357086;19;20563;-63
2023/08/13 04:15:34;;;;;;;5.85;0.50;;;;;;;19.00;86.57;100967.16;7359815;19;20010;-63
2023/08/13 04:18:01;;;;;;;8.95;0.60;;;;;;;19.01;86.72;100970.63;7362302;19;20503;-63
2023/08/13 04:20:28;;;;;;;6.38;0.50;;;;;;;19.02;86.43;100958.94;7359200;19;20026;-63
2023/08/13 04:22:55;;;;;;;4.63;0.50;;;;;;;19.01;86.14;100963.47;7358739;19;20090;-64
2023/08/13 04:25:22;;;;;;;8.07;0.82;;;;;;;19.00;85.98;100955.66;7360453;19;20081;-63
2023/08/13 04:27:49;;;;;;;7.30;0.70;;;;;;;18.98;86.44;100968.41;7357548;19;20021;-62
2023/08/13 04:30:16;;;;;;;8.18;0.77;;;;;;;18.95;86.23;100958.94;7357553;19;20018;-62
2023/08/13 04:32:55;;;;;;;9.55;0.60;;;;;;;18.97;87.19;100964.91;7359590;19;20036;-63
2023/08/13 04:35:22;;;;;;;6.20;0.50;;;;;;;18.97;87.26;100956.91;7359918;19;20014;-63
2023/08/13 04:37:50;;;;;;;5.78;0.40;;;;;;;18.98;86.95;100952.38;7359023;19;21067;-62
2023/08/13 04:40:18;;;;;;;5.90;0.50;;;;;;;18.99;87.29;100959.38;7359991;19;20345;-63
2023/08/13 04:42:45;;;;;;;5.15;0.50;;;;;;;18.99;87.07;100954.84;7357831;19;20365;-63
2023/08/13 04:45:12;;;;;;;9.77;1.25;;;;;;;19.00;86.71;100947.66;7356064;19;20089;-63
2023/08/13 04:47:39;;;;;;;10.52;0.55;;;;;;;19.01;86.60;100952.78;7359225;19;20447;-63
2023/08/13 04:50:09;;;;;;;7.57;0.60;;;;;;;18.98;86.65;100955.88;7360366;19;20355;-63
2023/08/13 04:52:36;;;;;;;9.15;0.60;;;;;;;18.98;86.65;100950.53;7358298;19;20027;-63
2023/08/13 04:55:04;;;;;;;9.57;0.65;;;;;;;18.98;86.92;100947.06;7360548;19;20033;-64
2023/08/13 04:57:31;;;;;;;9.20;0.85;;;;;;;18.98;87.09;100939.88;7356728;19;20545;-62
2023/08/13 04:59:59;;;;;;;8.07;0.50;;;;;;;18.97;86.87;100946.22;7359727;19;20026;-62
2023/08/13 05:02:26;;;;;;;5.78;0.50;;;;;;;18.99;87.18;100941.53;7357143;19;20007;-62
2023/08/13 05:04:54;;;;;;;8.35;0.60;;;;;;;18.98;86.94;100939.06;7357470;19;20018;-63
2023/08/13 05:07:22;;;;;;;8.40;0.60;;;;;;;18.97;87.28;100950.75;7357472;19;20018;-65
2023/08/13 05:09:49;;;;;;;9.35;0.60;;;;;;;18.98;87.28;100941.72;7358497;19;20011;-63
2023/08/13 05:12:16;;;;;;;4.80;0.70;;;;;;;18.95;87.31;100937.59;7354182;19;20010;-64
2023/08/13 05:14:44;;;;;;;8.13;0.60;;;;;;;18.92;87.45;100937.19;7359126;19;20018;-61
2023/08/13 05:17:21;;;;;;;6.57;0.65;;;;;;;18.92;88.04;100939.88;7356131;19;20006;-63
2023/08/13 05:19:48;;;;;;;9.10;0.70;;;;;;;18.90;87.95;100940.06;7356408;19;20540;-63
2023/08/13 05:22:15;;;;;;;8.68;0.70;;;;;;;18.93;88.63;100936.19;7352619;19;20448;-63
2023/08/13 05:24:43;;;;;;;10.57;1.08;;;;;;;18.93;88.59;100933.50;7359424;19;20468;-63
2023/08/13 05:27:09;;;;;;;7.28;0.77;;;;;;;18.98;88.33;100942.53;7354178;19;20049;-63
2023/08/13 05:29:37;;;;;;;7.30;0.80;;;;;;;18.98;88.10;100937.22;7357894;19;20022;-64
2023/08/13 05:32:05;;;;;;;7.03;0.50;;;;;;;19.00;88.17;100937.81;7357454;19;20018;-65
2023/08/13 05:34:32;;;;;;;5.20;0.82;;;;;;;19.03;88.37;100936.59;7356389;19;20063;-64
2023/08/13 05:36:59;;;;;;;7.55;0.60;;;;;;;19.04;88.84;100930.25;7356852;19;20082;-64
2023/08/13 05:39:26;;;;;;;7.22;0.60;;;;;;;19.05;88.34;100938.00;7358920;19;20017;-63
2023/08/13 05:41:53;;;;;;;4.72;0.50;;;;;;;19.07;88.23;100933.31;7355929;19;20023;-63
2023/08/13 05:44:20;;;;;;;9.48;0.70;;;;;;;19.05;88.37;100934.53;7356934;19;20041;-63
2023/08/13 05:46:47;;;;;;;7.57;0.70;;;;;;;19.04;88.57;100933.72;7356426;19;20021;-62
2023/08/13 05:49:14;;;;;;;10.82;0.60;;;;;;;19.07;88.12;100935.16;7358513;19;21579;-63
2023/08/13 05:51:41;;;;;;;6.30;0.50;;;;;;;19.09;89.49;100936.59;7357839;19;20015;-62
2023/08/13 05:54:08;;;;;;;8.45;0.60;;;;;;;19.08;88.68;100931.47;7356748;19;20026;-64
2023/08/13 05:56:37;;;;;;;6.97;0.52;;;;;;;19.06;88.36;100934.31;7354545;19;20022;-63
2023/08/13 05:59:04;;;;;;;7.50;1.23;;;;;;;19.10;88.74;100940.06;7359397;19;20531;-64
2023/08/13 06:01:31;;;;;;;5.93;0.50;;;;;;;19.11;88.38;100939.03;7358108;19;20026;-63
2023/08/13 06:03:59;;;;;;;5.15;0.40;;;;;;;19.12;88.07;100927.34;7356760;19;20147;-64
2023/08/13 06:06:36;;;;;;;5.53;0.57;;;;;;;19.15;88.31;100938.41;7356403;19;20320;-64
2023/08/13 06:09:05;;;;;;;5.38;0.50;;;;;;;19.17;88.39;100938.22;7358495;19;20010;-63
2023/08/13 06:11:32;;;;;;;4.85;0.40;;;;;;;19.16;87.87;100936.56;7355610;19;20018;-65
2023/08/13 06:13:59;;;;;;;5.30;0.30;;;;;;;19.17;88.42;100940.88;7357404;19;20568;-63
2023/08/13 06:16:32;;;;;;;3.60;0.40;;;;;;;19.19;88.14;100946.84;7361440;19;20035;-64
2023/08/13 06:19:14;;;;;;;4.30;0.30;;;;;;;19.24;88.28;100949.72;7358302;19;20344;-64
2023/08/13 06:21:41;;;;;;;5.65;0.50;;;;;;;19.25;88.29;100946.00;7362347;19;20014;-65
2023/08/13 06:24:08;;;;;;;4.30;0.40;;;;;;;19.27;88.12;100946.63;7359821;19;20038;-63
2023/08/13 06:26:46;;;;;;;4.68;0.40;;;;;;;19.29;89.03;100954.44;7362573;19;20018;-63
2023/08/13 06:29:13;;;;;;;4.03;0.50;;;;;;;19.33;88.81;100953.00;7362804;19;20014;-63
2023/08/13 06:31:40;;;;;;;4.35;0.30;;;;;;;19.34;88.72;100952.78;7363938;19;20430;-63
2023/08/13 06:34:09;;;;;;;3.88;0.40;;;;;;;19.35;88.27;100950.94;7365266;19;20405;-64
2023/08/13 06:36:36;;;;;;;3.60;0.40;;;;;;;19.39;88.34;100952.16;7362891;19;20681;-63
2023/08/13 06:39:03;;;;;;;6.38;0.65;;;;;;;19.41;88.21;100948.25;7363553;19;21735;-63
2023/08/13 06:41:31;;;;;;;5.38;0.50;;;;;;;19.44;87.98;100947.88;7358155;19;20021;-63
2023/08/13 06:43:58;;;;;;;4.00;0.55;;;;;;;19.42;88.10;100951.75;7363077;19;20018;-63
2023/08/13 06:46:33;;;;;;;4.03;0.40;;;;;;;19.45;88.64;100946.88;7362712;19;20014;-63
2023/08/13 06:49:13;;;;;;;8.05;0.40;;;;;;;19.47;87.98;100938.63;7362620;19;20512;-65
2023/08/13 06:51:41;;;;;;;5.72;0.40;;;;;;;19.51;88.00;100943.34;7363549;19;20150;-63
2023/08/13 06:54:08;;;;;;;5.35;0.40;;;;;;;19.48;86.25;100946.44;7363478;19;20056;-64
2023/08/13 06:56:43;;;;;;;3.63;0.40;;;;;;;19.46;86.23;100945.81;7358650;19;20801;-63
2023/08/13 06:59:11;;;;;;;3.92;0.40;;;;;;;19.48;86.03;100942.94;7362654;19;20475;-63
2023/08/13 07:01:38;;;;;;;4.20;0.50;;;;;;;19.53;86.02;100948.47;7363859;19;20018;-63
2023/08/13 07:04:06;;;;;;;6.60;1.63;;;;;;;19.59;85.80;100947.66;7363734;19;20491;-63
2023/08/13 07:06:45;;;;;;;4.70;0.50;;;;;;;19.65;85.68;100952.16;7362581;19;20043;-62
2023/08/13 07:09:12;;;;;;;6.00;0.50;;;;;;;19.69;84.87;100952.56;7362319;19;20141;-63
2023/08/13 07:11:40;;;;;;;4.75;0.45;;;;;;;19.71;84.90;100951.28;7359072;19;20025;-63
2023/08/13 07:14:07;;;;;;;6.80;0.47;;;;;;;19.69;84.64;100955.22;7362584;19;20022;-63
2023/08/13 07:16:37;;;;;;;4.18;0.40;;;;;;;19.64;84.70;100958.53;7363237;19;21789;-63
2023/08/13 07:19:04;;;;;;;3.28;0.60;;;;;;;19.61;85.16;100943.72;7360932;19;20022;-63
2023/08/13 07:21:32;;;;;;;5.97;0.40;;;;;;;19.61;85.23;100957.06;7360413;19;20015;-64
2023/08/13 07:23:59;;;;;;;7.75;0.40;;;;;;;19.70;85.76;100952.34;7358812;19;20027;-63
2023/08/13 07:26:46;;;;;;;3.28;0.40;;;;;;;19.74;85.05;100945.56;7358690;19;20009;-63
2023/08/13 07:29:13;;;;;;;6.07;0.30;;;;;;;19.77;85.10;100946.97;7358664;19;20015;-63
2023/08/13 07:31:40;;;;;;;3.03;0.40;;;;;;;19.76;84.85;100959.50;7359513;19;20071;-63
2023/08/13 07:34:07;;;;;;;6.38;0.40;;;;;;;19.77;84.53;100949.66;7360239;19;20007;-63
2023/08/13 07:36:47;;;;;;;8.05;0.77;;;;;;;19.79;84.06;100947.59;7358685;19;20028;-63
2023/08/13 07:39:15;;;;;;;4.03;0.40;;;;;;;19.78;84.35;100946.78;7359977;19;20018;-63
2023/08/13 07:41:43;;;;;;;4.75;0.90;;;;;;;19.79;84.49;100942.25;7359340;19;20036;-63
2023/08/13 07:44:10;;;;;;;6.70;1.90;;;;;;;19.78;84.10;100941.44;7361255;19;21002;-63
2023/08/13 07:46:41;;;;;;;4.63;0.32;;;;;;;19.81;84.65;100946.34;7358939;19;20646;-63
2023/08/13 07:49:08;;;;;;;2.72;0.55;;;;;;;19.84;84.90;100942.44;7359294;19;20142;-63
2023/08/13 07:51:35;;;;;;;4.82;0.70;;;;;;;19.86;84.88;100941.19;7361880;19;20509;-63
2023/08/13 07:54:02;;;;;;;5.68;0.50;;;;;;;19.87;84.43;100953.53;7361257;19;20018;-63
2023/08/13 07:56:40;;;;;;;6.82;0.40;;;;;;;19.88;84.34;100949.81;7360831;19;20676;-64
2023/08/13 07:59:14;;;;;;;4.05;0.52;;;;;;;19.89;83.94;100948.78;7359668;19;20046;-63
2023/08/13 08:01:42;;;;;;;2.10;0.22;;;;;;;19.93;84.40;100947.34;7362318;19;20022;-63
2023/08/13 08:04:09;;;;;;;5.45;0.43;;;;;;;19.93;83.35;100950.00;7362804;19;20026;-65
2023/08/13 08:06:45;;;;;;;3.22;0.50;;;;;;;19.95;83.31;100955.16;7361426;19;20026;-64
2023/08/13 08:09:15;;;;;;;3.38;0.40;;;;;;;19.94;82.47;100949.00;7357231;19;20475;-64
2023/08/13 08:11:42;;;;;;;2.25;0.47;;;;;;;19.92;81.70;100951.03;7356626;19;20018;-64
2023/08/13 08:14:09;;;;;;;1.75;0.20;;;;;;;19.93;81.87;100958.03;7360942;19;20574;-64
2023/08/13 08:16:43;;;;;;;4.78;0.30;;;;;;;19.94;81.67;100950.84;7362744;19;20019;-63
2023/08/13 08:19:12;;;;;;;3.97;0.45;;;;;;;19.98;83.00;100955.53;7360697;19;20098;-63
2023/08/13 08:21:40;;;;;;;4.13;0.40;;;;;;;20.04;82.28;100953.88;7359472;19;20025;-63
2023/08/13 08:24:07;;;;;;;3.38;0.30;;;;;;;20.03;81.78;100950.38;7357068;19;20816;-62
2023/08/13 08:26:42;;;;;;;3.97;0.30;;;;;;;20.03;81.76;100950.38;7356112;19;21013;-63
2023/08/13 08:29:09;;;;;;;4.13;0.30;;;;;;;20.03;81.59;100952.22;7357418;19;20006;-64
2023/08/13 08:31:36;;;;;;;2.97;0.30;;;;;;;20.06;82.88;100957.97;7356803;19;20102;-64
2023/08/13 08:34:03;;;;;;;2.85;0.40;;;;;;;20.07;82.33;100948.09;7361206;19;20047;-63
2023/08/13 08:36:48;;;;;;;3.30;0.25;;;;;;;20.05;81.47;100948.34;7359832;19;20014;-63
2023/08/13 08:39:16;;;;;;;3.75;0.25;;;;;;;20.09;81.37;100948.72;7360602;19;20011;-63
2023/08/13 08:41:48;;;;;;;2.80;0.38;;;;;;;20.12;81.84;100944.78;7354085;19;20018;-64
2023/08/13 08:44:21;;;;;;;2.83;0.32;;;;;;;20.16;81.81;100948.69;7359567;19;20090;-65
2023/08/13 08:46:53;;;;;;;4.18;1.15;;;;;;;20.22;82.07;100956.66;7357650;19;20018;-65
2023/08/13 08:49:24;;;;;;;3.10;0.28;;;;;;;20.22;80.76;100947.81;7355211;19;20022;-63
2023/08/13 08:51:51;;;;;;;4.07;0.30;;;;;;;20.15;80.06;100955.91;7358072;19;20070;-63
2023/08/13 08:54:18;;;;;;;2.75;0.20;;;;;;;20.16;80.69;100946.84;7358876;19;20014;-64
2023/08/13 08:56:45;;;;;;;3.95;0.30;;;;;;;20.14;80.29;100958.78;7354134;19;20014;-64
2023/08/13 08:59:13;;;;;;;8.48;0.45;;;;;;;20.19;81.01;100950.94;7356467;19;20598;-64
2023/08/13 09:01:40;;;;;;;4.97;0.40;;;;;;;20.23;80.92;100958.31;7360206;19;20018;-64
2023/08/13 09:04:08;;;;;;;2.45;0.20;;;;;;;20.33;80.97;100953.34;7357461;19;20463;-63
2023/08/13 09:06:55;;;;;;;3.60;0.20;;;;;;;20.39;79.28;100952.50;7356967;19;20018;-63
2023/08/13 09:09:24;;;;;;;3.13;0.40;;;;;;;20.49;79.93;100944.84;7359860;19;20022;-63
2023/08/13 09:11:52;;;;;;;2.85;0.30;;;;;;;20.61;79.53;100944.97;7356363;19;20376;-63
2023/08/13 09:14:20;;;;;;;4.15;0.30;;;;;;;20.75;79.18;100935.00;7359137;19;20513;-63
2023/08/13 09:16:48;;;;;;;2.78;0.45;;;;;;;20.88;77.84;100948.28;7358533;19;20027;-63
2023/08/13 09:19:17;;;;;;;4.05;0.30;;;;;;;20.95;77.55;100950.91;7358085;19;20355;-63
2023/08/13 09:21:52;;;;;;;5.97;0.50;;;;;;;20.95;76.95;100942.88;7360287;19;20038;-63
2023/08/13 09:24:31;;;;;;;3.50;0.30;;;;;;;20.91;75.85;100950.53;7358369;19;20034;-66
2023/08/13 09:26:59;;;;;;;5.55;0.30;;;;;;;20.84;76.14;100950.56;7352879;19;20022;-63
2023/08/13 09:29:32;;;;;;;2.85;0.35;;;;;;;20.82;76.60;100949.16;7355881;19;20022;-63
2023/08/13 09:32:00;;;;;;;2.28;0.40;;;;;;;20.81;76.30;100948.34;7358094;19;20010;-65
2023/08/13 09:34:28;;;;;;;3.17;0.30;;;;;;;20.84;76.71;100944.41;7355718;19;20438;-63
2023/08/13 09:36:57;;;;;;;4.18;0.82;;;;;;;20.80;75.18;100935.19;7358735;19;20018;-63
2023/08/13 09:39:26;;;;;;;7.10;0.60;;;;;;;20.76;75.07;100931.31;7358692;19;20017;-62
2023/08/13 09:41:53;;;;;;;2.83;0.50;;;;;;;20.72;75.35;100924.75;7356509;19;20396;-62
2023/08/13 09:44:26;;;;;;;3.72;0.50;;;;;;;20.73;75.69;100921.00;7357785;19;20022;-63
2023/08/13 09:47:00;;;;;;;9.75;0.50;;;;;;;20.77;75.92;100928.41;7357710;19;20022;-62
2023/08/13 09:49:30;;;;;;;4.20;0.50;;;;;;;20.83;75.91;100932.88;7355913;19;20014;-63
2023/08/13 09:52:02;;;;;;;2.58;0.40;;;;;;;20.91;74.76;100923.78;7364020;19;21728;-63
2023/08/13 09:54:38;;;;;;;2.70;0.40;;;;;;;20.98;74.11;100927.19;7362751;19;20341;-63
2023/08/13 09:57:09;;;;;;;2.85;0.35;;;;;;;21.04;73.12;100922.84;7362975;19;20182;-63
2023/08/13 09:59:36;;;;;;;3.80;0.40;;;;;;;21.09;73.65;100923.00;7365214;19;20091;-65
2023/08/13 10:02:08;;;;;;;4.32;0.35;;;;;;;21.16;72.51;100929.16;7363125;19;20300;-63
2023/08/13 10:04:36;;;;;;;2.40;0.30;;;;;;;21.20;71.51;100931.16;7365022;19;20033;-63
2023/08/13 10:07:05;;;;;;;3.28;0.30;;;;;;;21.21;72.21;100930.13;7365858;19;20014;-63
2023/08/13 10:09:33;;;;;;;4.47;0.57;;;;;;;21.23;72.24;100916.53;7363072;19;20048;-64
2023/08/13 10:12:01;;;;;;;3.95;0.52;;;;;;;21.19;71.29;100932.19;7360778;19;20061;-63
2023/08/13 10:14:30;;;;;;;3.22;0.30;;;;;;;21.14;71.41;100923.19;7361474;19;21285;-63
2023/08/13 10:17:01;;;;;;;2.22;0.38;;;;;;;21.09;71.29;100929.16;7362634;19;20022;-63
2023/08/13 10:19:29;;;;;;;5.25;0.40;;;;;;;21.04;72.25;100922.84;7361392;19;20364;-64
2023/08/13 10:21:57;;;;;;;3.30;0.40;;;;;;;21.10;73.91;100928.13;7365076;19;20094;-63
2023/08/13 10:24:29;;;;;;;3.60;0.50;;;;;;;21.16;72.30;100934.50;7363073;19;20031;-63
2023/08/13 10:27:00;;;;;;;4.35;0.40;;;;;;;21.23;72.09;100930.72;7357287;19;20810;-63
2023/08/13 10:29:40;;;;;;;3.95;0.30;;;;;;;21.28;70.43;100927.41;7361276;19;20514;-63
2023/08/13 10:32:15;;;;;;;4.00;0.40;;;;;;;21.36;71.05;100921.75;7361770;19;20026;-63
2023/08/13 10:34:53;;;;;;;4.18;0.95;;;;;;;21.44;71.78;100920.63;7360470;19;20041;-63
2023/08/13 10:37:22;;;;;;;6.38;0.40;;;;;;;21.45;70.20;100909.72;7361886;19;21545;-62
2023/08/13 10:39:55;;;;;;;2.05;0.28;;;;;;;21.51;70.66;100903.47;7363806;19;20711;-63
2023/08/13 10:42:33;;;;;;;6.82;0.40;;;;;;;21.58;70.91;100904.22;7361976;19;20088;-63
2023/08/13 10:45:04;;;;;;;1.20;0.30;;;;;;;21.66;70.52;100898.56;7362956;19;20658;-64
2023/08/13 10:47:47;;;;;;;1.65;0.30;;;;;;;21.69;69.87;100905.31;7363421;19;20018;-63
2023/08/13 10:50:38;;;;;;;2.08;0.30;;;;;;;21.76;69.08;100906.88;7361265;19;20022;-63
2023/08/13 10:53:12;;;;;;;3.38;0.20;;;;;;;21.82;68.13;100904.34;7363963;19;20483;-63
2023/08/13 10:55:42;;;;;;;2.28;0.30;;;;;;;21.89;69.16;100905.09;7360130;19;20093;-63
2023/08/13 10:58:28;;;;;;;3.13;0.25;;;;;;;22.00;68.92;100897.13;7360676;19;20090;-63
2023/08/13 11:01:09;;;;;;;4.45;0.40;;;;;;;22.11;68.25;100898.22;7362092;19;20046;-63
2023/08/13 11:03:45;;;;;;;2.47;0.30;;;;;;;22.18;68.36;100891.75;7352352;19;20015;-63
2023/08/13 11:06:14;;;;;;;3.03;0.20;;;;;;;22.19;67.48;100892.56;7362688;19;20014;-63
2023/08/13 11:08:46;;;;;;;2.50;0.28;;;;;;;22.18;67.56;100893.59;7360000;19;20011;-69
2023/08/13 11:11:18;;;;;;;2.38;0.35;;;;;;;22.15;66.06;100892.19;7362122;19;20455;-64
2023/08/13 11:13:48;;;;;;;5.10;0.30;;;;;;;22.14;66.27;100897.78;7362607;19;20014;-62
2023/08/13 11:16:51;;;;;;;4.28;0.40;;;;;;;22.14;66.18;100898.63;7360614;19;20307;-63
2023/08/13 11:19:19;;;;;;;2.55;0.32;;;;;;;22.15;65.00;100915.50;7363177;19;20014;-63
2023/08/13 11:21:46;;;;;;;1.27;0.30;;;;;;;22.18;66.48;100893.59;7364044;19;20014;-63
2023/08/13 11:24:14;;;;;;;3.47;0.20;;;;;;;22.20;66.83;100906.78;7362701;19;20089;-62
2023/08/13 11:26:46;;;;;;;3.35;0.30;;;;;;;22.24;66.00;100900.75;7357827;19;20014;-63
2023/08/13 11:29:13;;;;;;;3.58;0.28;;;;;;;22.24;65.24;100897.25;7359198;19;20026;-63
2023/08/13 11:31:44;;;;;;;3.67;0.45;;;;;;;22.27;65.56;100900.28;7363473;19;20054;-63
2023/08/13 11:34:11;;;;;;;1.10;0.20;;;;;;;22.28;65.41;100898.41;7363377;19;20026;-64
2023/08/13 11:36:46;;;;;;;0.50;0.20;;;;;;;22.22;64.72;100891.28;7362273;19;20006;-63